Time;durP1;ratioP1;P1;durP2;ratioP2;P2;SDS_P1;SDS_P2;PMS_P1;PMS_P2;Temp;Humidity;BMP_temperature;BMP_pressure;BME280_temperature;BME280_humidity;BME280_pressure;Samples;Min_cycle;Max_cycle;Signal;HPM_P1;HPM_P2
2023/04/11 00:01:44;;;;;;;;;0.25;0.25;;;;;20.74;39.51;101061.97;5100200;27;45830;-44
2023/04/11 00:04:10;;;;;;;;;0.00;0.00;;;;;20.74;39.52;101070.75;5100269;27;45361;-44
2023/04/11 00:06:35;;;;;;;;;1.00;1.00;;;;;20.73;39.93;101078.72;5099879;27;45502;-45
2023/04/11 00:09:01;;;;;;;;;2.00;0.00;;;;;20.73;39.73;101083.97;5100565;27;46450;-43
2023/04/11 00:11:26;;;;;;;;;0.00;0.00;;;;;20.73;39.32;101089.25;5101031;27;45325;-45
2023/04/11 00:13:56;;;;;;;;;0.00;0.00;;;;;20.72;39.74;101082.25;5100133;27;45292;-46
2023/04/11 00:16:25;;;;;;;;;0.00;0.00;;;;;20.71;39.48;101084.06;5100345;27;45495;-44
2023/04/11 00:18:50;;;;;;;;;0.00;0.00;;;;;20.71;39.94;101081.44;5100164;27;46971;-47
2023/04/11 00:21:16;;;;;;;;;0.25;0.00;;;;;20.70;39.92;101080.56;5106189;27;45250;-46
2023/04/11 00:23:41;;;;;;;;;0.00;0.00;;;;;20.72;39.22;101090.16;5116934;27;45307;-46
2023/04/11 00:26:07;;;;;;;;;0.75;0.75;;;;;20.70;39.80;101085.00;5104316;27;45249;-44
2023/04/11 00:28:33;;;;;;;;;0.75;0.75;;;;;20.70;39.41;101091.09;5100736;27;48224;-44
2023/04/11 00:30:58;;;;;;;;;0.00;0.00;;;;;20.69;39.20;101083.28;5105295;27;45448;-44
2023/04/11 00:33:24;;;;;;;;;0.00;0.00;;;;;20.70;39.20;101077.94;5100773;27;45400;-45
2023/04/11 00:35:49;;;;;;;;;1.25;1.00;;;;;20.69;39.33;101084.13;5100914;27;45469;-46
2023/04/11 00:38:15;;;;;;;;;0.00;0.00;;;;;20.68;39.81;101082.41;5101164;27;58346;-46
2023/04/11 00:40:43;;;;;;;;;0.00;0.00;;;;;20.68;39.14;101085.06;5099797;27;45173;-44
2023/04/11 00:43:08;;;;;;;;;0.00;0.00;;;;;20.68;39.53;101100.84;5100099;27;45416;-45
2023/04/11 00:45:34;;;;;;;;;0.50;0.00;;;;;20.67;39.47;101088.63;5114732;27;45558;-44
2023/04/11 00:47:59;;;;;;;;;1.75;0.50;;;;;20.68;39.28;101100.00;5107074;27;45267;-46
2023/04/11 00:50:25;;;;;;;;;1.75;0.50;;;;;20.67;39.18;101090.41;5098865;27;45375;-44
2023/04/11 00:52:54;;;;;;;;;1.75;0.00;;;;;20.67;39.22;101091.25;5100931;27;45400;-44
2023/04/11 00:55:20;;;;;;;;;0.00;0.00;;;;;20.67;39.61;101095.69;5100383;27;45357;-45
2023/04/11 00:57:46;;;;;;;;;0.00;0.00;;;;;20.65;39.49;101087.88;5101578;27;47511;-44
2023/04/11 01:00:12;;;;;;;;;1.75;1.00;;;;;20.66;39.07;101097.47;5106103;27;45233;-45
2023/04/11 01:02:41;;;;;;;;;1.00;1.00;;;;;20.66;39.46;101107.13;5111811;27;45144;-44
2023/04/11 01:05:08;;;;;;;;;1.00;1.00;;;;;20.65;38.96;101102.81;5117341;27;44780;-45
2023/04/11 01:07:35;;;;;;;;;0.50;0.00;;;;;20.66;39.31;101099.25;5114904;27;45251;-42
2023/04/11 01:10:02;;;;;;;;;0.00;0.00;;;;;20.65;39.22;101092.25;5114942;27;45619;-45
2023/04/11 01:12:28;;;;;;;;;0.00;0.00;;;;;20.64;39.48;101086.16;5116102;27;44686;-44
2023/04/11 01:14:54;;;;;;;;;0.75;0.00;;;;;20.63;39.37;101089.72;5112988;27;45364;-44
2023/04/11 01:17:20;;;;;;;;;0.00;0.00;;;;;20.64;39.37;101101.97;5110499;27;45206;-44
2023/04/11 01:19:46;;;;;;;;;0.50;0.50;;;;;20.64;39.40;101095.81;5103240;27;45749;-44
2023/04/11 01:22:16;;;;;;;;;0.50;0.00;;;;;20.64;39.04;101116.91;5098928;27;45454;-44
2023/04/11 01:24:42;;;;;;;;;1.00;0.00;;;;;20.63;39.31;101123.97;5099066;27;45466;-44
2023/04/11 01:27:07;;;;;;;;;2.00;0.00;;;;;20.63;39.19;101125.72;5097460;27;47973;-43
2023/04/11 01:29:33;;;;;;;;;1.00;1.00;;;;;20.63;39.39;101117.81;5099253;27;45157;-43
2023/04/11 01:31:58;;;;;;;;;0.00;0.00;;;;;20.63;39.46;101109.91;5099485;27;45218;-42
2023/04/11 01:34:27;;;;;;;;;0.00;0.00;;;;;20.62;39.14;101101.19;5098530;27;48424;-42
2023/04/11 01:36:52;;;;;;;;;1.00;1.00;;;;;20.61;39.28;101102.13;5097861;27;47406;-43
2023/04/11 01:39:18;;;;;;;;;0.00;0.00;;;;;20.62;38.92;101105.59;5099897;27;45384;-43
2023/04/11 01:41:45;;;;;;;;;0.00;0.00;;;;;20.61;39.42;101112.66;5117932;27;47588;-41
2023/04/11 01:44:11;;;;;;;;;0.00;0.00;;;;;20.62;39.42;101124.88;5112500;27;45252;-42
2023/04/11 01:46:37;;;;;;;;;0.00;0.00;;;;;20.60;39.18;101121.47;5106482;27;45178;-42
2023/04/11 01:49:02;;;;;;;;;0.00;0.00;;;;;20.59;39.07;101125.03;5114143;27;45634;-44
2023/04/11 01:51:28;;;;;;;;;0.00;0.00;;;;;20.60;39.19;101128.53;5101339;27;45180;-46
2023/04/11 01:53:53;;;;;;;;;1.00;0.00;;;;;20.60;38.77;101132.00;5103826;27;45615;-44
2023/04/11 01:56:19;;;;;;;;;0.00;0.00;;;;;20.59;39.24;101143.47;5105032;27;47050;-44
2023/04/11 01:58:44;;;;;;;;;0.50;0.00;;;;;20.59;39.00;101140.84;5099015;27;45230;-46
2023/04/11 02:01:12;;;;;;;;;0.00;0.00;;;;;20.59;38.76;101142.63;5098573;27;45275;-44
2023/04/11 02:03:37;;;;;;;;;0.00;0.00;;;;;20.57;38.81;101132.16;5099655;27;45392;-43
2023/04/11 02:06:03;;;;;;;;;0.00;0.00;;;;;20.57;38.74;101142.69;5117310;27;45156;-44
2023/04/11 02:08:29;;;;;;;;;2.00;0.00;;;;;20.58;39.09;101148.81;5102777;27;45422;-44
2023/04/11 02:10:54;;;;;;;;;2.00;0.00;;;;;20.57;38.68;101155.84;5098774;27;45501;-46
2023/04/11 02:13:19;;;;;;;;;1.25;0.00;;;;;20.58;39.18;101160.19;5098574;27;45363;-44
2023/04/11 02:15:45;;;;;;;;;1.00;1.00;;;;;20.58;38.79;101156.72;5097958;27;46933;-44
2023/04/11 02:18:10;;;;;;;;;1.50;0.00;;;;;20.58;38.65;101159.34;5097384;27;46692;-44
2023/04/11 02:20:36;;;;;;;;;0.00;0.00;;;;;20.57;39.09;101162.91;5098527;27;45292;-45
2023/04/11 02:23:03;;;;;;;;;0.00;0.00;;;;;20.55;39.00;101166.47;5098142;27;45525;-44
2023/04/11 02:25:29;;;;;;;;;0.00;0.00;;;;;20.55;38.70;101176.16;5097949;27;47207;-44
2023/04/11 02:27:54;;;;;;;;;0.00;0.00;;;;;20.54;39.05;101163.94;5097765;27;45393;-44
2023/04/11 02:30:20;;;;;;;;;0.00;0.00;;;;;20.55;39.06;101149.84;5098294;27;56123;-42
2023/04/11 02:32:45;;;;;;;;;0.00;0.00;;;;;20.53;38.67;101152.53;5100349;27;47017;-43
2023/04/11 02:35:10;;;;;;;;;0.00;0.00;;;;;20.52;39.00;101161.34;5101730;27;46100;-42
2023/04/11 02:37:36;;;;;;;;;0.00;0.00;;;;;20.54;38.65;101169.19;5100863;27;48653;-43
2023/04/11 02:40:03;;;;;;;;;1.00;0.00;;;;;20.54;38.51;101161.31;5100862;27;45301;-44
2023/04/11 02:42:28;;;;;;;;;0.00;0.00;;;;;20.52;38.52;101161.34;5100891;27;45620;-42
2023/04/11 02:44:54;;;;;;;;;0.00;0.00;;;;;20.52;39.06;101171.06;5100442;27;47020;-42
2023/04/11 02:47:20;;;;;;;;;0.50;0.00;;;;;20.53;38.89;101168.31;5100284;27;45478;-44
2023/04/11 02:49:45;;;;;;;;;0.00;0.00;;;;;20.52;38.88;101174.53;5101094;27;45390;-43
2023/04/11 02:52:11;;;;;;;;;0.00;0.00;;;;;20.53;38.68;101164.84;5105119;27;45518;-42
2023/04/11 02:54:36;;;;;;;;;0.00;0.00;;;;;20.53;38.64;101164.84;5107664;27;46051;-43
2023/04/11 02:57:02;;;;;;;;;1.00;0.00;;;;;20.52;39.02;101165.78;5103883;27;45463;-42
2023/04/11 02:59:27;;;;;;;;;0.00;0.00;;;;;20.52;38.95;101160.50;5123267;27;44666;-43
2023/04/11 03:01:59;;;;;;;;;0.00;0.00;;;;;20.51;38.88;101172.81;5113174;27;45255;-45
2023/04/11 03:04:24;;;;;;;;;0.00;0.00;;;;;20.52;38.99;101171.06;5100251;27;45426;-44
2023/04/11 03:06:49;;;;;;;;;0.00;0.00;;;;;20.52;38.95;101176.31;5099961;27;45262;-44
2023/04/11 03:09:15;;;;;;;;;2.00;0.00;;;;;20.51;38.49;101179.88;5100374;27;45725;-45
2023/04/11 03:11:40;;;;;;;;;2.00;0.00;;;;;20.51;38.76;101185.13;5100298;27;49243;-44
2023/04/11 03:14:05;;;;;;;;;0.00;0.00;;;;;20.51;38.92;101185.13;5100018;27;46093;-45
2023/04/11 03:16:31;;;;;;;;;1.00;0.00;;;;;20.49;38.38;101187.00;5099758;27;51058;-46
2023/04/11 03:18:57;;;;;;;;;1.00;0.00;;;;;20.49;38.91;101187.88;5100091;27;45473;-44
2023/04/11 03:21:22;;;;;;;;;0.00;0.00;;;;;20.50;38.82;101189.56;5100120;27;45550;-46
2023/04/11 03:23:48;;;;;;;;;0.25;0.25;;;;;20.49;38.99;101187.00;5100036;27;46281;-45
2023/04/11 03:26:13;;;;;;;;;0.00;0.00;;;;;20.49;38.46;101187.00;5120285;27;45149;-43
2023/04/11 03:28:39;;;;;;;;;0.00;0.00;;;;;20.49;38.96;101194.91;5105728;27;45174;-44
2023/04/11 03:31:05;;;;;;;;;0.00;0.00;;;;;20.47;38.58;101194.09;5100923;27;45328;-44
2023/04/11 03:33:30;;;;;;;;;1.00;0.00;;;;;20.48;38.29;101186.16;5100008;27;46314;-42
2023/04/11 03:35:55;;;;;;;;;0.00;0.00;;;;;20.48;38.36;101186.16;5099307;27;55808;-43
2023/04/11 03:38:21;;;;;;;;;1.00;0.00;;;;;20.47;38.51;101179.19;5121336;27;45412;-43
2023/04/11 03:40:46;;;;;;;;;0.00;0.00;;;;;20.46;38.60;101187.13;5126031;27;45080;-42
2023/04/11 03:43:12;;;;;;;;;0.00;0.00;;;;;20.48;38.61;101182.66;5112228;27;45364;-44
2023/04/11 03:45:37;;;;;;;;;0.00;0.00;;;;;20.47;38.71;101183.56;5100708;27;45380;-44
2023/04/11 03:48:03;;;;;;;;;0.00;0.00;;;;;20.46;38.79;101188.00;5099617;27;45426;-44
2023/04/11 03:50:28;;;;;;;;;0.00;0.00;;;;;20.47;38.64;101189.72;5099959;27;45314;-44
2023/04/11 03:52:53;;;;;;;;;0.00;0.00;;;;;20.46;38.79;101201.16;5099616;27;45345;-46
2023/04/11 03:55:19;;;;;;;;;0.67;0.00;;;;;20.46;38.32;101197.66;5098179;27;67292;-44
2023/04/11 03:57:45;;;;;;;;;1.00;0.00;;;;;20.46;38.48;101198.53;5099343;27;45347;-43
2023/04/11 04:00:11;;;;;;;;;0.00;0.00;;;;;20.45;38.93;101190.72;5100124;27;45380;-46
2023/04/11 04:02:36;;;;;;;;;0.00;0.00;;;;;20.45;38.66;101186.28;5102421;27;46153;-47
2023/04/11 04:05:02;;;;;;;;;0.00;0.00;;;;;20.46;38.24;101192.41;5101548;27;55695;-44
2023/04/11 04:07:27;;;;;;;;;0.00;0.00;;;;;20.45;38.78;101193.34;5098904;27;45278;-44
2023/04/11 04:09:53;;;;;;;;;0.00;0.00;;;;;20.43;38.30;101196.03;5099727;27;45335;-48
2023/04/11 04:12:21;;;;;;;;;1.00;0.00;;;;;20.46;38.14;101202.94;5099193;27;45987;-46
2023/04/11 04:14:47;;;;;;;;;0.00;0.00;;;;;20.44;38.55;101203.03;5099149;27;45446;-43
2023/04/11 04:17:14;;;;;;;;;0.00;0.00;;;;;20.44;38.69;101202.19;5098580;27;45466;-44
2023/04/11 04:19:39;;;;;;;;;0.00;0.00;;;;;20.43;38.42;101205.75;5097607;27;45468;-44
2023/04/11 04:22:10;;;;;;;;;0.00;0.00;;;;;20.41;38.50;101205.78;5098831;27;46560;-46
2023/04/11 04:24:41;;;;;;;;;0.00;0.00;;;;;20.42;38.13;101212.78;5098984;27;45449;-45
2023/04/11 04:27:08;;;;;;;;;0.00;0.00;;;;;20.42;38.70;101196.13;5096852;27;45317;-44
2023/04/11 04:29:37;;;;;;;;;0.00;0.00;;;;;20.42;38.67;101204.03;5099963;27;45374;-44
2023/04/11 04:32:09;;;;;;;;;0.00;0.00;;;;;20.40;38.25;101201.44;5098584;27;47693;-44
2023/04/11 04:34:40;;;;;;;;;0.50;0.00;;;;;20.40;38.55;101209.34;5098544;27;45191;-44
2023/04/11 04:37:05;;;;;;;;;0.00;0.00;;;;;20.41;38.47;101215.50;5098658;27;45420;-44
2023/04/11 04:39:32;;;;;;;;;0.00;0.00;;;;;20.38;38.74;101196.28;5098931;27;45323;-45
2023/04/11 04:41:58;;;;;;;;;2.00;0.00;;;;;20.38;38.76;101192.81;5098384;27;46958;-44
2023/04/11 04:44:24;;;;;;;;;1.00;0.00;;;;;20.38;38.69;101204.19;5098455;27;45389;-45
2023/04/11 04:46:53;;;;;;;;;1.00;0.00;;;;;20.39;38.44;101208.50;5114270;27;45309;-42
2023/04/11 04:49:19;;;;;;;;;1.75;1.00;;;;;20.38;38.73;101208.59;5123881;27;44912;-47
2023/04/11 04:51:44;;;;;;;;;1.00;1.00;;;;;20.37;38.79;101213.00;5111735;27;46421;-46
2023/04/11 04:54:09;;;;;;;;;1.25;1.00;;;;;20.38;38.31;101213.88;5097730;27;45429;-47
2023/04/11 04:56:35;;;;;;;;;4.50;1.75;;;;;20.38;38.95;101216.50;5098071;27;45377;-46
2023/04/11 04:59:00;;;;;;;;;3.00;1.00;;;;;20.37;38.88;101215.63;5098437;27;45556;-46
2023/04/11 05:01:25;;;;;;;;;2.75;1.00;;;;;20.37;38.96;101222.69;5098191;27;45375;-45
2023/04/11 05:03:58;;;;;;;;;2.00;1.00;;;;;20.36;38.82;101227.09;5097329;27;64468;-45
2023/04/11 05:06:28;;;;;;;;;2.00;1.25;;;;;20.36;39.39;101224.44;5098465;27;45400;-44
2023/04/11 05:08:58;;;;;;;;;3.50;1.00;;;;;20.36;39.62;101224.44;5106056;27;45521;-44
2023/04/11 05:11:24;;;;;;;;;2.00;1.00;;;;;20.38;40.09;101237.56;5108413;27;46281;-45
2023/04/11 05:13:49;;;;;;;;;2.00;0.75;;;;;20.35;40.24;101232.44;5091694;27;45365;-43
2023/04/11 05:16:16;;;;;;;;;1.00;1.00;;;;;20.36;39.92;101242.88;5077881;27;45437;-43
2023/04/11 05:18:41;;;;;;;;;2.75;1.50;;;;;20.36;40.11;101242.03;5092686;27;45603;-45
2023/04/11 05:21:06;;;;;;;;;1.50;0.50;;;;;20.34;40.32;101242.09;5097535;27;46095;-43
2023/04/11 05:23:32;;;;;;;;;0.00;0.00;;;;;20.34;39.79;101246.50;5096940;27;70612;-43
2023/04/11 05:25:57;;;;;;;;;2.25;1.00;;;;;20.32;39.32;101254.50;5097930;27;45326;-43
2023/04/11 05:28:22;;;;;;;;;3.00;1.00;;;;;20.31;40.29;101252.78;5101846;27;45608;-43
2023/04/11 05:30:47;;;;;;;;;2.00;2.00;;;;;20.29;39.56;101244.09;5122935;27;63466;-44
2023/04/11 05:33:14;;;;;;;;;3.33;2.00;;;;;20.27;39.70;101243.31;5106289;27;68700;-46
2023/04/11 05:35:40;;;;;;;;;1.50;0.75;;;;;20.26;39.62;101249.50;5099067;27;45286;-45
2023/04/11 05:38:05;;;;;;;;;1.25;0.75;;;;;20.23;39.96;101249.66;5101514;27;45572;-44
2023/04/11 05:40:31;;;;;;;;;1.00;1.00;;;;;20.21;39.13;101257.63;5117448;27;46111;-46
2023/04/11 05:42:56;;;;;;;;;1.75;0.25;;;;;20.19;39.58;101258.63;5113581;27;47794;-46
2023/04/11 05:45:22;;;;;;;;;1.00;1.00;;;;;20.18;39.71;101263.03;5121672;27;44711;-46
2023/04/11 05:47:47;;;;;;;;;0.00;0.00;;;;;20.18;39.49;101256.94;5120324;27;45296;-46
2023/04/11 05:50:13;;;;;;;;;0.50;0.50;;;;;20.15;39.62;101249.16;5104241;27;59571;-45
2023/04/11 05:52:39;;;;;;;;;2.75;1.00;;;;;20.16;39.19;101267.53;5097797;27;45415;-46
2023/04/11 05:55:05;;;;;;;;;1.00;1.00;;;;;20.15;39.31;101259.69;5103859;27;45471;-45
2023/04/11 05:57:31;;;;;;;;;1.50;0.00;;;;;20.13;39.16;101254.50;5106440;27;45791;-46
2023/04/11 05:59:56;;;;;;;;;3.50;1.50;;;;;20.13;39.18;101259.78;5097411;27;45360;-45
2023/04/11 06:02:22;;;;;;;;;1.00;1.00;;;;;20.13;39.05;101269.44;5097770;27;45263;-44
2023/04/11 06:04:47;;;;;;;;;1.75;1.00;;;;;20.13;39.46;101269.44;5099272;27;57025;-46
2023/04/11 06:07:13;;;;;;;;;2.50;0.25;;;;;20.13;39.05;101272.06;5116924;27;45318;-47
2023/04/11 06:09:40;;;;;;;;;1.50;1.00;;;;;20.12;38.89;101263.31;5097860;27;46168;-45
2023/04/11 06:12:06;;;;;;;;;2.00;1.50;;;;;20.11;38.86;101274.78;5097712;27;45432;-46
2023/04/11 06:14:32;;;;;;;;;2.00;2.00;;;;;20.09;38.70;101271.34;5097897;27;45312;-44
2023/04/11 06:16:58;;;;;;;;;4.00;1.00;;;;;20.10;38.76;101285.38;5097983;27;45491;-44
2023/04/11 06:19:23;;;;;;;;;2.00;2.00;;;;;20.10;39.11;101291.50;5097730;27;45482;-44
2023/04/11 06:21:48;;;;;;;;;1.25;1.00;;;;;20.10;39.13;101280.13;5098371;27;45356;-45
2023/04/11 06:24:17;;;;;;;;;1.75;1.00;;;;;20.10;39.05;101285.38;5098805;27;45313;-44
2023/04/11 06:26:42;;;;;;;;;2.50;0.00;;;;;20.10;38.90;101285.38;5099985;27;45432;-44
2023/04/11 06:29:07;;;;;;;;;0.00;0.00;;;;;20.10;39.17;101282.75;5100347;27;49607;-46
2023/04/11 06:31:36;;;;;;;;;1.00;1.00;;;;;20.09;38.77;101284.50;5105659;27;45344;-46
2023/04/11 06:34:01;;;;;;;;;3.00;0.25;;;;;20.09;39.10;101281.88;5107936;27;62160;-44
2023/04/11 06:36:27;;;;;;;;;2.00;1.00;;;;;20.11;38.96;101297.63;5109514;27;45519;-44
2023/04/11 06:38:53;;;;;;;;;1.00;1.00;;;;;20.08;38.99;101301.22;5108442;27;45350;-46
2023/04/11 06:41:18;;;;;;;;;4.00;1.00;;;;;20.06;38.77;101293.41;5109022;27;45317;-46
2023/04/11 06:43:43;;;;;;;;;2.00;1.00;;;;;20.06;38.86;101290.78;5103004;27;45376;-45
2023/04/11 06:46:09;;;;;;;;;1.00;1.00;;;;;20.06;38.97;101296.03;5109476;27;56246;-46
2023/04/11 06:48:34;;;;;;;;;2.25;2.00;;;;;20.05;38.82;101294.34;5116556;27;47087;-45
2023/04/11 06:50:59;;;;;;;;;2.50;1.00;;;;;20.06;39.06;101311.00;5117636;27;45435;-45
2023/04/11 06:53:25;;;;;;;;;2.25;1.00;;;;;20.06;38.34;101316.25;5101338;27;45428;-44
2023/04/11 06:55:50;;;;;;;;;1.00;1.00;;;;;20.06;38.57;101311.00;5099768;27;45333;-44
2023/04/11 06:58:16;;;;;;;;;3.00;2.00;;;;;20.05;38.53;101310.13;5100037;27;46130;-43
2023/04/11 07:00:41;;;;;;;;;1.75;1.75;;;;;20.05;38.55;101307.50;5101064;27;45297;-44
2023/04/11 07:03:07;;;;;;;;;2.00;1.00;;;;;20.06;38.54;101321.53;5088331;27;45362;-44
2023/04/11 07:05:34;;;;;;;;;2.25;1.00;;;;;20.07;38.43;101324.06;5076329;27;45405;-43
2023/04/11 07:08:00;;;;;;;;;2.25;1.00;;;;;20.10;38.49;101325.69;5076278;27;46070;-45
2023/04/11 07:10:25;;;;;;;;;1.75;1.25;;;;;20.11;38.89;101329.19;5076322;27;45307;-44
2023/04/11 07:12:51;;;;;;;;;3.50;0.75;;;;;20.11;38.70;101334.47;5076679;27;45423;-43
2023/04/11 07:15:16;;;;;;;;;3.50;1.00;;;;;20.12;38.57;101336.19;5075882;27;45267;-46
2023/04/11 07:17:41;;;;;;;;;2.00;0.50;;;;;20.13;38.45;101330.81;5077467;27;45346;-43
2023/04/11 07:20:10;;;;;;;;;1.50;0.75;;;;;20.14;38.70;101339.56;5080370;27;45400;-43
2023/04/11 07:22:36;;;;;;;;;1.00;1.00;;;;;20.14;38.27;101337.81;5082742;27;45323;-44
2023/04/11 07:25:04;;;;;;;;;3.50;0.75;;;;;20.15;38.48;101328.13;5089180;27;45227;-45
2023/04/11 07:27:31;;;;;;;;;1.00;1.00;;;;;20.17;38.81;101328.91;5085828;28;46927;-44
2023/04/11 07:29:57;;;;;;;;;1.25;1.00;;;;;20.17;38.75;101328.91;5094526;27;45425;-44
2023/04/11 07:32:22;;;;;;;;;1.50;1.50;;;;;20.17;38.40;101313.97;5099294;27;45229;-44
2023/04/11 07:34:48;;;;;;;;;1.00;1.00;;;;;20.16;38.46;101308.78;5103901;28;45305;-47
2023/04/11 07:37:13;;;;;;;;;1.00;1.00;;;;;20.17;38.50;101321.00;5098257;27;66018;-44
2023/04/11 07:39:39;;;;;;;;;2.00;1.00;;;;;20.19;38.31;101316.53;5105398;27;44694;-46
2023/04/11 07:42:05;;;;;;;;;3.00;2.00;;;;;20.18;38.24;101320.09;5099948;27;44742;-45
2023/04/11 07:44:31;;;;;;;;;0.25;0.00;;;;;20.19;38.65;101327.06;5086334;28;45259;-45
2023/04/11 07:46:57;;;;;;;;;1.50;0.75;;;;;20.18;38.17;101322.72;5078606;27;46638;-44
2023/04/11 07:49:22;;;;;;;;;2.00;0.00;;;;;20.20;38.24;101323.50;5079014;27;45276;-43
2023/04/11 07:51:47;;;;;;;;;2.50;1.00;;;;;20.20;38.33;101323.50;5079002;27;45172;-45
2023/04/11 07:54:13;;;;;;;;;1.25;1.25;;;;;20.20;38.21;101316.44;5077738;28;45538;-46
2023/04/11 07:56:38;;;;;;;;;2.25;1.00;;;;;20.21;38.20;101312.06;5077841;28;61693;-46
2023/04/11 07:59:04;;;;;;;;;0.75;0.50;;;;;20.21;38.04;101305.00;5078732;27;45279;-45
2023/04/11 08:01:30;;;;;;;;;1.00;1.00;;;;;20.22;38.24;101305.88;5078624;27;45251;-44
2023/04/11 08:03:55;;;;;;;;;3.00;1.00;;;;;20.21;38.29;101302.38;5079054;27;45369;-45
2023/04/11 08:06:21;;;;;;;;;1.00;1.00;;;;;20.23;38.50;101312.81;5078249;27;45757;-45
2023/04/11 08:08:48;;;;;;;;;1.50;0.75;;;;;20.22;38.07;101314.59;5078294;27;45471;-47
2023/04/11 08:11:14;;;;;;;;;1.00;1.00;;;;;20.22;38.40;101319.03;5078620;27;45255;-43
2023/04/11 08:13:39;;;;;;;;;2.75;1.50;;;;;20.22;38.11;101324.28;5079213;27;45612;-45
2023/04/11 08:16:09;;;;;;;;;4.75;2.00;;;;;20.23;38.40;101326.84;5079319;27;46060;-43
2023/04/11 08:18:36;;;;;;;;;5.75;1.50;;;;;20.24;38.44;101336.47;5098335;27;45248;-44
2023/04/11 08:21:01;;;;;;;;;1.00;1.00;;;;;20.24;38.22;101341.72;5099009;27;45376;-44
2023/04/11 08:23:31;;;;;;;;;5.00;1.75;;;;;20.26;38.51;101339.00;5099708;27;45348;-43
2023/04/11 08:25:56;;;;;;;;;4.50;1.00;;;;;20.26;38.31;101330.28;5098819;27;45979;-42
2023/04/11 08:28:22;;;;;;;;;3.75;1.25;;;;;20.25;38.28;101321.50;5098278;27;45451;-45
2023/04/11 08:30:49;;;;;;;;;1.50;1.00;;;;;20.24;38.13;101319.78;5098764;27;45467;-45
2023/04/11 08:33:15;;;;;;;;;2.00;2.00;;;;;20.26;38.05;101315.31;5098884;27;45306;-45
2023/04/11 09:35:38;;;;;;;;;1.00;1.00;;;;;20.22;37.94;101321.66;5096814;27;45187;-38
2023/04/11 09:38:08;;;;;;;;;0.75;0.75;;;;;20.24;38.65;101325.06;5107732;27;46086;-38
2023/04/11 09:40:40;;;;;;;;;2.50;1.00;;;;;20.23;38.17;101323.34;5116470;27;46622;-37
2023/04/11 09:43:06;;;;;;;;;1.00;1.00;;;;;20.22;38.23;101326.94;5111043;27;45364;-38
2023/04/11 09:45:31;;;;;;;;;1.25;1.00;;;;;20.22;38.10;101322.50;5097612;27;45322;-38
2023/04/11 09:47:58;;;;;;;;;2.67;1.00;;;;;20.22;37.92;101314.59;5081900;28;55214;-37
2023/04/11 09:50:25;;;;;;;;;2.00;1.00;;;;;20.22;38.46;101321.66;5080899;27;45398;-37
2023/04/11 09:53:00;;;;;;;;;1.75;0.00;;;;;20.22;38.07;101316.41;5081950;27;45246;-37
2023/04/11 09:55:25;;;;;;;;;1.00;1.00;;;;;20.23;37.90;101320.72;5085504;27;45176;-37
2023/04/11 09:57:52;;;;;;;;;1.00;1.00;;;;;20.23;38.05;101310.19;5085725;27;45317;-37
2023/04/11 10:00:23;;;;;;;;;6.00;1.00;;;;;20.24;37.86;101322.41;5081895;28;45363;-37
2023/04/11 10:02:51;;;;;;;;;2.00;1.00;;;;;20.24;38.03;101319.78;5083410;28;45415;-37
2023/04/11 10:05:18;;;;;;;;;1.00;1.00;;;;;20.25;38.61;101310.97;5082607;28;45279;-37
2023/04/11 10:08:02;;;;;;;;;1.00;1.00;;;;;20.26;38.24;101327.63;5084268;28;45358;-37
2023/04/11 10:10:28;;;;;;;;;2.50;1.75;;;;;20.26;38.15;101325.84;5083107;28;45241;-37
2023/04/11 10:12:53;;;;;;;;;2.00;0.00;;;;;20.25;38.10;101326.75;5096008;27;45218;-38
2023/04/11 10:15:20;;;;;;;;;1.00;1.00;;;;;20.26;38.13;101328.47;5085023;27;45390;-38
2023/04/11 10:18:11;;;;;;;;;1.00;1.00;;;;;20.27;37.88;101326.72;5081924;28;45609;-37
2023/04/11 10:20:42;;;;;;;;;2.25;1.25;;;;;20.26;38.34;101312.69;5079411;27;46298;-37
2023/04/11 10:23:08;;;;;;;;;3.00;2.00;;;;;20.26;38.13;101306.56;5082099;27;45287;-37
2023/04/11 10:25:48;;;;;;;;;1.50;1.00;;;;;20.26;37.83;101303.94;5085696;27;45226;-36
2023/04/11 10:28:29;;;;;;;;;1.00;1.00;;;;;20.26;37.95;101299.53;5086662;27;45492;-36
2023/04/11 10:31:16;;;;;;;;;2.50;1.75;;;;;20.26;38.03;101296.06;5083323;27;47007;-36
2023/04/11 10:34:12;;;;;;;;;4.25;1.25;;;;;20.26;38.04;101302.16;5088760;27;45380;-37
2023/04/11 10:37:08;;;;;;;;;3.25;1.25;;;;;20.26;38.44;101307.41;5085533;28;45318;-36
2023/04/11 10:40:07;;;;;;;;;1.75;1.00;;;;;20.27;38.16;101313.56;5072420;27;45309;-36
2023/04/11 10:42:33;;;;;;;;;1.00;1.00;;;;;20.25;38.21;101305.72;5092873;27;46738;-37
2023/04/11 10:45:18;;;;;;;;;0.75;0.50;;;;;20.27;38.00;101292.50;5086991;27;44732;-38
2023/04/11 10:47:55;;;;;;;;;2.00;2.00;;;;;20.27;37.76;101272.28;5067098;27;45376;-36
2023/04/11 10:50:24;;;;;;;;;1.00;1.00;;;;;20.28;37.88;101279.25;5077736;28;45176;-36
2023/04/11 10:52:50;;;;;;;;;3.50;1.00;;;;;20.28;37.89;101295.03;5085560;27;45444;-37
2023/04/11 10:55:17;;;;;;;;;1.00;1.00;;;;;20.28;38.10;101279.25;5080787;27;45362;-36
2023/04/11 10:58:07;;;;;;;;;2.50;1.00;;;;;20.31;37.89;101294.03;5080974;27;45462;-37
2023/04/11 11:00:52;;;;;;;;;1.00;1.00;;;;;20.32;38.02;101282.59;5082167;28;45554;-36
2023/04/11 11:03:32;;;;;;;;;3.50;1.00;;;;;20.32;37.71;101280.81;5088932;27;46311;-36
2023/04/11 11:06:08;;;;;;;;;3.00;1.00;;;;;20.33;37.99;101266.75;5096423;27;45792;-37
2023/04/11 11:08:40;;;;;;;;;1.00;1.00;;;;;20.34;38.04;101263.16;5086818;27;45802;-37
2023/04/11 11:11:07;;;;;;;;;0.50;0.00;;;;;20.34;38.14;101252.63;5084010;27;45254;-40
2023/04/11 11:13:38;;;;;;;;;2.00;1.00;;;;;20.35;37.89;101245.59;5082020;27;46378;-37
2023/04/11 11:16:05;;;;;;;;;2.00;0.00;;;;;20.34;38.05;101239.47;5085432;27;45770;-37
2023/04/11 11:18:31;;;;;;;;;1.00;1.00;;;;;20.34;37.60;101231.56;5095806;27;45486;-37
2023/04/11 11:20:56;;;;;;;;;0.00;0.00;;;;;20.35;37.69;101235.91;5102675;27;45191;-44
2023/04/11 11:23:22;;;;;;;;;1.00;1.00;;;;;20.35;37.60;101230.63;5102698;27;46043;-39
2023/04/11 11:25:54;;;;;;;;;5.75;1.00;;;;;20.36;37.56;101228.88;5099159;27;45369;-37
2023/04/11 11:28:20;;;;;;;;;0.75;0.75;;;;;20.35;37.36;101214.84;5092182;27;45306;-43
2023/04/11 11:30:53;;;;;;;;;3.00;1.00;;;;;20.37;37.64;101220.91;5084959;27;45414;-39
2023/04/11 11:33:21;;;;;;;;;1.50;1.00;;;;;20.37;37.75;101220.06;5081389;27;46306;-38
2023/04/11 11:35:50;;;;;;;;;1.25;0.00;;;;;20.37;37.62;101226.16;5079318;28;46007;-38
2023/04/11 11:38:16;;;;;;;;;1.00;1.00;;;;;20.38;37.66;101221.75;5079540;27;45357;-38
2023/04/11 11:40:42;;;;;;;;;4.00;1.00;;;;;20.38;37.55;101222.59;5080778;27;45275;-37
2023/04/11 11:43:07;;;;;;;;;1.50;1.00;;;;;20.37;37.41;101218.25;5088951;27;46202;-37
2023/04/11 11:45:33;;;;;;;;;3.00;1.00;;;;;20.38;37.67;101217.34;5091519;27;45226;-38
2023/04/11 11:47:58;;;;;;;;;3.00;1.00;;;;;20.37;37.35;101210.38;5094504;27;47589;-38
2023/04/11 11:50:25;;;;;;;;;0.50;0.00;;;;;20.38;37.85;101195.44;5088079;28;45595;-37
2023/04/11 11:52:51;;;;;;;;;3.50;0.25;;;;;20.38;37.68;101201.53;5087741;27;47192;-37
2023/04/11 11:55:16;;;;;;;;;1.00;1.00;;;;;20.38;37.55;101206.81;5086831;27;45391;-37
2023/04/11 11:57:45;;;;;;;;;1.00;1.00;;;;;20.38;37.33;101201.53;5081900;28;45357;-37
2023/04/11 12:00:12;;;;;;;;;0.75;0.75;;;;;20.37;37.37;101205.09;5081876;27;45314;-37
2023/04/11 12:02:40;;;;;;;;;3.00;0.50;;;;;20.40;37.31;101204.09;5081658;27;45306;-37
2023/04/11 12:05:09;;;;;;;;;2.50;0.00;;;;;20.40;37.65;101196.19;5084415;27;45298;-37
2023/04/11 12:07:38;;;;;;;;;3.25;1.00;;;;;20.41;37.48;101216.31;5083178;27;45523;-37
2023/04/11 12:10:10;;;;;;;;;3.00;1.00;;;;;20.39;37.84;101216.41;5082226;27;45209;-37
2023/04/11 12:12:41;;;;;;;;;0.25;0.25;;;;;20.41;37.74;101215.50;5081343;27;46186;-37
2023/04/11 12:15:21;;;;;;;;;1.00;1.00;;;;;20.39;37.47;101216.41;5087182;27;45857;-37
2023/04/11 12:17:50;;;;;;;;;1.50;1.00;;;;;20.38;37.84;101204.19;5083610;27;45279;-36
2023/04/11 12:20:21;;;;;;;;;3.00;1.00;;;;;20.39;37.63;101203.25;5081256;27;45248;-38
2023/04/11 12:22:46;;;;;;;;;1.00;1.00;;;;;20.37;37.93;101197.19;5079848;27;45365;-37
2023/04/11 12:25:14;;;;;;;;;2.00;1.00;;;;;20.37;37.30;101199.84;5079280;28;45331;-37